sensor_id;sensor_type;location;lat;lon;timestamp;P1;durP1;ratioP1;P2;durP2;ratioP2
57337;SDS011;43173;50.980;18.204;2024-01-10T00:01:08;132.50;;;42.40;;
57337;SDS011;43173;50.980;18.204;2024-01-10T00:03:33;105.80;;;36.90;;
57337;SDS011;43173;50.980;18.204;2024-01-10T00:05:59;145.60;;;47.50;;
57337;SDS011;43173;50.980;18.204;2024-01-10T00:08:24;129.70;;;43.70;;
57337;SDS011;43173;50.980;18.204;2024-01-10T00:10:51;116.70;;;42.70;;
57337;SDS011;43173;50.980;18.204;2024-01-10T00:13:17;131.20;;;39.80;;
57337;SDS011;43173;50.980;18.204;2024-01-10T00:15:42;117.90;;;39.50;;
57337;SDS011;43173;50.980;18.204;2024-01-10T00:18:08;99.30;;;34.90;;
57337;SDS011;43173;50.980;18.204;2024-01-10T00:20:34;61.20;;;21.90;;
57337;SDS011;43173;50.980;18.204;2024-01-10T00:22:59;57.50;;;22.90;;
57337;SDS011;43173;50.980;18.204;2024-01-10T00:25:24;76.40;;;29.80;;
57337;SDS011;43173;50.980;18.204;2024-01-10T00:27:50;65.70;;;26.60;;
57337;SDS011;43173;50.980;18.204;2024-01-10T00:30:15;97.10;;;32.60;;
57337;SDS011;43173;50.980;18.204;2024-01-10T00:32:41;116.60;;;36.90;;
57337;SDS011;43173;50.980;18.204;2024-01-10T00:35:06;112.60;;;38.70;;
57337;SDS011;43173;50.980;18.204;2024-01-10T00:37:32;102.50;;;38.10;;
57337;SDS011;43173;50.980;18.204;2024-01-10T00:39:58;123.10;;;43.70;;
57337;SDS011;43173;50.980;18.204;2024-01-10T00:42:23;125.80;;;42.50;;
57337;SDS011;43173;50.980;18.204;2024-01-10T00:44:49;114.70;;;40.40;;
57337;SDS011;43173;50.980;18.204;2024-01-10T00:47:14;110.70;;;40.10;;
57337;SDS011;43173;50.980;18.204;2024-01-10T00:49:40;105.00;;;38.70;;
57337;SDS011;43173;50.980;18.204;2024-01-10T00:52:06;81.20;;;33.00;;
57337;SDS011;43173;50.980;18.204;2024-01-10T00:54:31;109.90;;;37.50;;
57337;SDS011;43173;50.980;18.204;2024-01-10T00:56:57;101.30;;;35.40;;
57337;SDS011;43173;50.980;18.204;2024-01-10T00:59:22;100.70;;;37.80;;
57337;SDS011;43173;50.980;18.204;2024-01-10T01:01:48;95.10;;;37.40;;
57337;SDS011;43173;50.980;18.204;2024-01-10T01:04:13;124.80;;;41.20;;
57337;SDS011;43173;50.980;18.204;2024-01-10T01:06:39;100.90;;;38.10;;
57337;SDS011;43173;50.980;18.204;2024-01-10T01:09:04;101.40;;;35.70;;
57337;SDS011;43173;50.980;18.204;2024-01-10T01:11:30;87.60;;;33.60;;
57337;SDS011;43173;50.980;18.204;2024-01-10T01:13:55;94.30;;;35.00;;
57337;SDS011;43173;50.980;18.204;2024-01-10T01:16:21;101.50;;;36.60;;
57337;SDS011;43173;50.980;18.204;2024-01-10T01:18:46;108.20;;;39.00;;
57337;SDS011;43173;50.980;18.204;2024-01-10T01:21:12;106.60;;;37.90;;
57337;SDS011;43173;50.980;18.204;2024-01-10T01:23:37;121.50;;;38.30;;
57337;SDS011;43173;50.980;18.204;2024-01-10T01:26:03;97.40;;;39.10;;
57337;SDS011;43173;50.980;18.204;2024-01-10T01:28:29;98.20;;;37.40;;
57337;SDS011;43173;50.980;18.204;2024-01-10T01:30:55;92.10;;;37.80;;
57337;SDS011;43173;50.980;18.204;2024-01-10T01:33:20;92.90;;;34.00;;
57337;SDS011;43173;50.980;18.204;2024-01-10T01:35:46;109.20;;;35.70;;
57337;SDS011;43173;50.980;18.204;2024-01-10T01:38:11;118.70;;;38.40;;
57337;SDS011;43173;50.980;18.204;2024-01-10T01:40:37;105.40;;;36.00;;
57337;SDS011;43173;50.980;18.204;2024-01-10T01:43:17;104.20;;;38.70;;
57337;SDS011;43173;50.980;18.204;2024-01-10T01:45:43;99.80;;;35.60;;
57337;SDS011;43173;50.980;18.204;2024-01-10T01:48:09;97.00;;;37.90;;
57337;SDS011;43173;50.980;18.204;2024-01-10T01:50:34;106.70;;;38.80;;
57337;SDS011;43173;50.980;18.204;2024-01-10T01:53:00;115.50;;;39.10;;
57337;SDS011;43173;50.980;18.204;2024-01-10T01:55:25;97.30;;;34.40;;
57337;SDS011;43173;50.980;18.204;2024-01-10T01:57:51;119.40;;;39.60;;
57337;SDS011;43173;50.980;18.204;2024-01-10T02:00:17;93.10;;;35.10;;
57337;SDS011;43173;50.980;18.204;2024-01-10T02:02:43;79.30;;;31.80;;
57337;SDS011;43173;50.980;18.204;2024-01-10T02:08:06;82.90;;;29.70;;
57337;SDS011;43173;50.980;18.204;2024-01-10T02:10:31;90.30;;;35.40;;
57337;SDS011;43173;50.980;18.204;2024-01-10T02:12:57;109.20;;;40.20;;
57337;SDS011;43173;50.980;18.204;2024-01-10T02:15:23;84.30;;;34.20;;
57337;SDS011;43173;50.980;18.204;2024-01-10T02:17:48;96.50;;;32.10;;
57337;SDS011;43173;50.980;18.204;2024-01-10T02:20:14;114.20;;;39.90;;
57337;SDS011;43173;50.980;18.204;2024-01-10T02:22:45;91.30;;;31.70;;
57337;SDS011;43173;50.980;18.204;2024-01-10T02:25:12;77.40;;;29.60;;
57337;SDS011;43173;50.980;18.204;2024-01-10T02:27:39;98.50;;;37.60;;
57337;SDS011;43173;50.980;18.204;2024-01-10T02:30:06;98.80;;;38.00;;
57337;SDS011;43173;50.980;18.204;2024-01-10T02:32:32;112.90;;;41.70;;
57337;SDS011;43173;50.980;18.204;2024-01-10T02:34:58;116.40;;;40.70;;
57337;SDS011;43173;50.980;18.204;2024-01-10T02:37:24;88.20;;;37.70;;
57337;SDS011;43173;50.980;18.204;2024-01-10T02:39:50;113.20;;;40.80;;
57337;SDS011;43173;50.980;18.204;2024-01-10T02:42:16;106.70;;;36.70;;
57337;SDS011;43173;50.980;18.204;2024-01-10T02:44:42;94.00;;;36.80;;
57337;SDS011;43173;50.980;18.204;2024-01-10T02:47:08;109.10;;;39.50;;
57337;SDS011;43173;50.980;18.204;2024-01-10T02:49:34;110.60;;;37.30;;
57337;SDS011;43173;50.980;18.204;2024-01-10T02:52:00;76.60;;;26.70;;
57337;SDS011;43173;50.980;18.204;2024-01-10T02:54:25;54.50;;;21.70;;
57337;SDS011;43173;50.980;18.204;2024-01-10T02:56:51;78.00;;;28.70;;
57337;SDS011;43173;50.980;18.204;2024-01-10T02:59:17;81.10;;;35.30;;
57337;SDS011;43173;50.980;18.204;2024-01-10T03:01:43;84.60;;;29.80;;
57337;SDS011;43173;50.980;18.204;2024-01-10T03:04:09;71.70;;;26.30;;
57337;SDS011;43173;50.980;18.204;2024-01-10T03:06:35;58.90;;;25.00;;
57337;SDS011;43173;50.980;18.204;2024-01-10T03:09:01;76.50;;;29.40;;
57337;SDS011;43173;50.980;18.204;2024-01-10T03:11:26;58.30;;;19.80;;
57337;SDS011;43173;50.980;18.204;2024-01-10T03:14:00;45.60;;;18.60;;
57337;SDS011;43173;50.980;18.204;2024-01-10T03:16:27;90.90;;;32.30;;
57337;SDS011;43173;50.980;18.204;2024-01-10T03:18:53;42.60;;;19.70;;
57337;SDS011;43173;50.980;18.204;2024-01-10T03:21:19;88.40;;;36.00;;
57337;SDS011;43173;50.980;18.204;2024-01-10T03:23:59;83.40;;;32.00;;
57337;SDS011;43173;50.980;18.204;2024-01-10T03:26:26;100.70;;;37.20;;
57337;SDS011;43173;50.980;18.204;2024-01-10T03:28:51;89.40;;;34.40;;
57337;SDS011;43173;50.980;18.204;2024-01-10T03:31:17;83.90;;;33.30;;
57337;SDS011;43173;50.980;18.204;2024-01-10T03:33:43;66.20;;;28.00;;
57337;SDS011;43173;50.980;18.204;2024-01-10T03:36:11;105.10;;;41.70;;
57337;SDS011;43173;50.980;18.204;2024-01-10T03:38:39;134.40;;;49.90;;
57337;SDS011;43173;50.980;18.204;2024-01-10T03:41:04;117.40;;;44.10;;
57337;SDS011;43173;50.980;18.204;2024-01-10T03:43:30;113.10;;;41.40;;
57337;SDS011;43173;50.980;18.204;2024-01-10T03:45:56;107.20;;;37.40;;
57337;SDS011;43173;50.980;18.204;2024-01-10T03:48:22;98.80;;;37.20;;
57337;SDS011;43173;50.980;18.204;2024-01-10T03:50:48;121.50;;;44.20;;
57337;SDS011;43173;50.980;18.204;2024-01-10T03:53:13;140.20;;;43.50;;
57337;SDS011;43173;50.980;18.204;2024-01-10T03:55:39;112.30;;;40.50;;
57337;SDS011;43173;50.980;18.204;2024-01-10T03:58:04;92.80;;;38.70;;
57337;SDS011;43173;50.980;18.204;2024-01-10T04:00:30;101.30;;;37.60;;
57337;SDS011;43173;50.980;18.204;2024-01-10T04:02:56;99.70;;;38.20;;
57337;SDS011;43173;50.980;18.204;2024-01-10T04:05:22;90.70;;;35.10;;
57337;SDS011;43173;50.980;18.204;2024-01-10T04:07:49;103.60;;;36.60;;
57337;SDS011;43173;50.980;18.204;2024-01-10T04:10:15;105.90;;;39.90;;
57337;SDS011;43173;50.980;18.204;2024-01-10T04:12:41;106.20;;;40.50;;
57337;SDS011;43173;50.980;18.204;2024-01-10T04:15:07;123.20;;;44.40;;
57337;SDS011;43173;50.980;18.204;2024-01-10T04:17:33;95.40;;;37.20;;
57337;SDS011;43173;50.980;18.204;2024-01-10T04:19:59;72.70;;;30.30;;
57337;SDS011;43173;50.980;18.204;2024-01-10T04:22:24;83.80;;;36.20;;
57337;SDS011;43173;50.980;18.204;2024-01-10T04:24:50;115.10;;;41.80;;
57337;SDS011;43173;50.980;18.204;2024-01-10T04:27:16;72.00;;;26.60;;
57337;SDS011;43173;50.980;18.204;2024-01-10T04:29:41;93.60;;;32.60;;
57337;SDS011;43173;50.980;18.204;2024-01-10T04:32:07;75.20;;;31.20;;
57337;SDS011;43173;50.980;18.204;2024-01-10T04:34:32;97.50;;;38.80;;
57337;SDS011;43173;50.980;18.204;2024-01-10T04:36:58;93.00;;;36.80;;
57337;SDS011;43173;50.980;18.204;2024-01-10T04:39:23;101.50;;;40.90;;
57337;SDS011;43173;50.980;18.204;2024-01-10T04:41:49;62.60;;;26.10;;
57337;SDS011;43173;50.980;18.204;2024-01-10T04:44:15;86.40;;;33.20;;
57337;SDS011;43173;50.980;18.204;2024-01-10T04:46:41;50.30;;;23.50;;
57337;SDS011;43173;50.980;18.204;2024-01-10T04:49:07;70.30;;;29.50;;
57337;SDS011;43173;50.980;18.204;2024-01-10T04:51:33;58.50;;;24.80;;
57337;SDS011;43173;50.980;18.204;2024-01-10T04:53:58;85.10;;;32.30;;
57337;SDS011;43173;50.980;18.204;2024-01-10T04:56:24;77.50;;;32.70;;
57337;SDS011;43173;50.980;18.204;2024-01-10T04:58:50;93.20;;;34.80;;
57337;SDS011;43173;50.980;18.204;2024-01-10T05:01:16;48.60;;;23.30;;
57337;SDS011;43173;50.980;18.204;2024-01-10T05:03:41;108.40;;;38.40;;
57337;SDS011;43173;50.980;18.204;2024-01-10T05:06:07;131.90;;;47.40;;
57337;SDS011;43173;50.980;18.204;2024-01-10T05:08:32;139.00;;;47.10;;
57337;SDS011;43173;50.980;18.204;2024-01-10T05:10:58;142.70;;;49.10;;
57337;SDS011;43173;50.980;18.204;2024-01-10T05:13:23;84.50;;;34.20;;
57337;SDS011;43173;50.980;18.204;2024-01-10T05:15:49;125.10;;;43.00;;
57337;SDS011;43173;50.980;18.204;2024-01-10T05:18:16;117.60;;;46.30;;
57337;SDS011;43173;50.980;18.204;2024-01-10T05:20:42;127.70;;;45.60;;
57337;SDS011;43173;50.980;18.204;2024-01-10T05:23:07;165.20;;;54.10;;
57337;SDS011;43173;50.980;18.204;2024-01-10T05:25:33;115.00;;;41.40;;
57337;SDS011;43173;50.980;18.204;2024-01-10T05:27:59;91.00;;;35.30;;
57337;SDS011;43173;50.980;18.204;2024-01-10T05:30:25;139.80;;;49.90;;
57337;SDS011;43173;50.980;18.204;2024-01-10T05:32:50;146.70;;;52.30;;
57337;SDS011;43173;50.980;18.204;2024-01-10T05:35:16;113.70;;;44.10;;
57337;SDS011;43173;50.980;18.204;2024-01-10T05:37:41;155.20;;;50.40;;
57337;SDS011;43173;50.980;18.204;2024-01-10T05:42:38;60.90;;;26.80;;
57337;SDS011;43173;50.980;18.204;2024-01-10T05:45:04;110.80;;;36.60;;
57337;SDS011;43173;50.980;18.204;2024-01-10T05:47:31;113.90;;;40.50;;
57337;SDS011;43173;50.980;18.204;2024-01-10T05:49:57;94.30;;;36.70;;
57337;SDS011;43173;50.980;18.204;2024-01-10T05:52:22;136.30;;;47.00;;
57337;SDS011;43173;50.980;18.204;2024-01-10T05:54:48;133.60;;;48.20;;
57337;SDS011;43173;50.980;18.204;2024-01-10T05:57:14;150.70;;;49.20;;
57337;SDS011;43173;50.980;18.204;2024-01-10T05:59:40;151.40;;;57.20;;
57337;SDS011;43173;50.980;18.204;2024-01-10T06:02:06;146.50;;;50.80;;
57337;SDS011;43173;50.980;18.204;2024-01-10T06:04:31;141.10;;;53.40;;
57337;SDS011;43173;50.980;18.204;2024-01-10T06:06:58;225.30;;;78.70;;
57337;SDS011;43173;50.980;18.204;2024-01-10T06:09:24;273.40;;;84.80;;
57337;SDS011;43173;50.980;18.204;2024-01-10T06:11:50;202.40;;;72.10;;
57337;SDS011;43173;50.980;18.204;2024-01-10T06:14:16;174.10;;;60.00;;
57337;SDS011;43173;50.980;18.204;2024-01-10T06:16:41;143.40;;;51.40;;
57337;SDS011;43173;50.980;18.204;2024-01-10T06:19:07;112.50;;;42.00;;
57337;SDS011;43173;50.980;18.204;2024-01-10T06:21:33;140.20;;;50.40;;
57337;SDS011;43173;50.980;18.204;2024-01-10T06:23:59;134.70;;;48.40;;
57337;SDS011;43173;50.980;18.204;2024-01-10T06:26:24;99.00;;;41.10;;
57337;SDS011;43173;50.980;18.204;2024-01-10T06:28:50;114.80;;;42.70;;
57337;SDS011;43173;50.980;18.204;2024-01-10T06:31:15;143.80;;;48.00;;
57337;SDS011;43173;50.980;18.204;2024-01-10T06:33:41;132.60;;;44.70;;
57337;SDS011;43173;50.980;18.204;2024-01-10T06:36:06;117.50;;;47.20;;
57337;SDS011;43173;50.980;18.204;2024-01-10T06:38:32;125.20;;;48.40;;
57337;SDS011;43173;50.980;18.204;2024-01-10T06:40:58;142.80;;;49.60;;
57337;SDS011;43173;50.980;18.204;2024-01-10T06:43:23;142.10;;;48.80;;
57337;SDS011;43173;50.980;18.204;2024-01-10T06:45:49;103.70;;;41.80;;
57337;SDS011;43173;50.980;18.204;2024-01-10T06:48:15;134.20;;;49.10;;
57337;SDS011;43173;50.980;18.204;2024-01-10T06:50:41;122.50;;;44.70;;
57337;SDS011;43173;50.980;18.204;2024-01-10T06:53:06;29.00;;;17.20;;
57337;SDS011;43173;50.980;18.204;2024-01-10T06:55:33;93.60;;;36.00;;
57337;SDS011;43173;50.980;18.204;2024-01-10T06:57:58;63.40;;;29.10;;
57337;SDS011;43173;50.980;18.204;2024-01-10T07:00:24;53.90;;;24.30;;
57337;SDS011;43173;50.980;18.204;2024-01-10T07:02:49;98.70;;;34.30;;
57337;SDS011;43173;50.980;18.204;2024-01-10T07:05:15;88.50;;;30.90;;
57337;SDS011;43173;50.980;18.204;2024-01-10T07:07:41;43.10;;;21.60;;
57337;SDS011;43173;50.980;18.204;2024-01-10T07:10:07;53.50;;;27.80;;
57337;SDS011;43173;50.980;18.204;2024-01-10T07:12:33;41.40;;;20.80;;
57337;SDS011;43173;50.980;18.204;2024-01-10T07:14:59;50.30;;;20.80;;
57337;SDS011;43173;50.980;18.204;2024-01-10T07:17:25;66.70;;;30.80;;
57337;SDS011;43173;50.980;18.204;2024-01-10T07:19:50;107.20;;;37.70;;
57337;SDS011;43173;50.980;18.204;2024-01-10T07:22:16;53.10;;;19.00;;
57337;SDS011;43173;50.980;18.204;2024-01-10T07:24:43;58.80;;;27.00;;
57337;SDS011;43173;50.980;18.204;2024-01-10T07:27:09;78.00;;;32.00;;
57337;SDS011;43173;50.980;18.204;2024-01-10T07:29:35;80.00;;;30.30;;
57337;SDS011;43173;50.980;18.204;2024-01-10T07:32:00;61.20;;;27.20;;
57337;SDS011;43173;50.980;18.204;2024-01-10T07:46:06;165.60;;;57.60;;
57337;SDS011;43173;50.980;18.204;2024-01-10T07:48:31;68.30;;;29.90;;
57337;SDS011;43173;50.980;18.204;2024-01-10T07:50:57;131.20;;;46.40;;
57337;SDS011;43173;50.980;18.204;2024-01-10T07:53:23;64.50;;;27.80;;
57337;SDS011;43173;50.980;18.204;2024-01-10T07:55:52;111.50;;;43.10;;
57337;SDS011;43173;50.980;18.204;2024-01-10T07:58:18;117.90;;;42.30;;
57337;SDS011;43173;50.980;18.204;2024-01-10T08:00:43;51.80;;;26.60;;
57337;SDS011;43173;50.980;18.204;2024-01-10T08:03:10;109.50;;;45.40;;
57337;SDS011;43173;50.980;18.204;2024-01-10T08:05:35;97.10;;;44.50;;
57337;SDS011;43173;50.980;18.204;2024-01-10T08:08:01;92.90;;;34.60;;
57337;SDS011;43173;50.980;18.204;2024-01-10T08:10:28;63.30;;;27.40;;
57337;SDS011;43173;50.980;18.204;2024-01-10T08:12:54;119.40;;;47.60;;
57337;SDS011;43173;50.980;18.204;2024-01-10T08:15:22;119.20;;;46.50;;
57337;SDS011;43173;50.980;18.204;2024-01-10T08:17:48;58.20;;;17.50;;
57337;SDS011;43173;50.980;18.204;2024-01-10T08:20:14;48.90;;;25.00;;
57337;SDS011;43173;50.980;18.204;2024-01-10T08:22:44;71.00;;;31.40;;
57337;SDS011;43173;50.980;18.204;2024-01-10T08:25:10;64.60;;;27.20;;
57337;SDS011;43173;50.980;18.204;2024-01-10T08:27:36;124.00;;;47.90;;
57337;SDS011;43173;50.980;18.204;2024-01-10T08:30:01;80.80;;;28.20;;
57337;SDS011;43173;50.980;18.204;2024-01-10T08:32:30;71.80;;;32.80;;
57337;SDS011;43173;50.980;18.204;2024-01-10T08:34:55;51.70;;;24.30;;
57337;SDS011;43173;50.980;18.204;2024-01-10T08:37:21;136.50;;;52.50;;
57337;SDS011;43173;50.980;18.204;2024-01-10T08:39:47;73.70;;;35.10;;
57337;SDS011;43173;50.980;18.204;2024-01-10T08:42:12;78.50;;;31.30;;
57337;SDS011;43173;50.980;18.204;2024-01-10T08:44:38;74.40;;;28.50;;
57337;SDS011;43173;50.980;18.204;2024-01-10T08:47:04;81.20;;;32.50;;
57337;SDS011;43173;50.980;18.204;2024-01-10T08:49:29;71.60;;;32.10;;
57337;SDS011;43173;50.980;18.204;2024-01-10T08:51:55;51.10;;;23.00;;
57337;SDS011;43173;50.980;18.204;2024-01-10T08:54:21;63.30;;;29.10;;
57337;SDS011;43173;50.980;18.204;2024-01-10T08:56:48;127.60;;;47.90;;
57337;SDS011;43173;50.980;18.204;2024-01-10T08:59:13;109.20;;;43.60;;
57337;SDS011;43173;50.980;18.204;2024-01-10T09:01:40;142.70;;;49.70;;
57337;SDS011;43173;50.980;18.204;2024-01-10T09:04:05;129.30;;;48.60;;
57337;SDS011;43173;50.980;18.204;2024-01-10T09:06:32;79.80;;;31.20;;
57337;SDS011;43173;50.980;18.204;2024-01-10T09:08:58;134.70;;;51.50;;
57337;SDS011;43173;50.980;18.204;2024-01-10T09:11:23;88.60;;;36.20;;
57337;SDS011;43173;50.980;18.204;2024-01-10T09:13:50;136.60;;;45.80;;
57337;SDS011;43173;50.980;18.204;2024-01-10T09:16:16;141.30;;;51.80;;
57337;SDS011;43173;50.980;18.204;2024-01-10T09:18:43;156.30;;;53.40;;
57337;SDS011;43173;50.980;18.204;2024-01-10T09:21:09;149.80;;;59.20;;
57337;SDS011;43173;50.980;18.204;2024-01-10T09:23:35;175.40;;;60.30;;
57337;SDS011;43173;50.980;18.204;2024-01-10T09:26:02;179.10;;;61.40;;
57337;SDS011;43173;50.980;18.204;2024-01-10T09:28:28;169.10;;;64.50;;
57337;SDS011;43173;50.980;18.204;2024-01-10T09:30:54;192.60;;;65.10;;
57337;SDS011;43173;50.980;18.204;2024-01-10T09:33:20;156.80;;;58.00;;
57337;SDS011;43173;50.980;18.204;2024-01-10T09:35:46;158.50;;;58.00;;
57337;SDS011;43173;50.980;18.204;2024-01-10T09:38:12;176.50;;;57.80;;
57337;SDS011;43173;50.980;18.204;2024-01-10T09:40:38;131.30;;;49.50;;
57337;SDS011;43173;50.980;18.204;2024-01-10T09:43:04;149.30;;;52.50;;
57337;SDS011;43173;50.980;18.204;2024-01-10T09:45:34;154.30;;;57.60;;
57337;SDS011;43173;50.980;18.204;2024-01-10T09:48:00;119.70;;;48.90;;
57337;SDS011;43173;50.980;18.204;2024-01-10T09:50:26;137.90;;;53.60;;
57337;SDS011;43173;50.980;18.204;2024-01-10T09:53:02;157.20;;;51.90;;
57337;SDS011;43173;50.980;18.204;2024-01-10T09:55:33;158.80;;;56.40;;
57337;SDS011;43173;50.980;18.204;2024-01-10T09:58:04;121.10;;;43.40;;
57337;SDS011;43173;50.980;18.204;2024-01-10T10:00:30;102.50;;;42.20;;
57337;SDS011;43173;50.980;18.204;2024-01-10T10:02:57;142.20;;;53.00;;
57337;SDS011;43173;50.980;18.204;2024-01-10T10:05:23;147.00;;;51.00;;
57337;SDS011;43173;50.980;18.204;2024-01-10T10:07:52;127.00;;;46.60;;
57337;SDS011;43173;50.980;18.204;2024-01-10T10:10:23;128.50;;;47.80;;
57337;SDS011;43173;50.980;18.204;2024-01-10T10:12:49;138.90;;;51.90;;
57337;SDS011;43173;50.980;18.204;2024-01-10T10:15:20;136.20;;;49.60;;
57337;SDS011;43173;50.980;18.204;2024-01-10T10:17:47;138.90;;;48.40;;
57337;SDS011;43173;50.980;18.204;2024-01-10T10:23:03;132.50;;;46.20;;
57337;SDS011;43173;50.980;18.204;2024-01-10T10:28:15;94.70;;;38.50;;
57337;SDS011;43173;50.980;18.204;2024-01-10T10:30:41;108.10;;;42.80;;
57337;SDS011;43173;50.980;18.204;2024-01-10T10:33:06;100.90;;;39.90;;
57337;SDS011;43173;50.980;18.204;2024-01-10T10:35:33;134.20;;;47.00;;
57337;SDS011;43173;50.980;18.204;2024-01-10T10:37:59;133.10;;;47.80;;
57337;SDS011;43173;50.980;18.204;2024-01-10T10:40:25;123.70;;;48.40;;
57337;SDS011;43173;50.980;18.204;2024-01-10T10:42:56;139.10;;;49.90;;
57337;SDS011;43173;50.980;18.204;2024-01-10T10:45:22;106.60;;;40.50;;
57337;SDS011;43173;50.980;18.204;2024-01-10T10:47:58;127.90;;;44.90;;
57337;SDS011;43173;50.980;18.204;2024-01-10T10:50:28;144.50;;;50.60;;
57337;SDS011;43173;50.980;18.204;2024-01-10T10:52:58;119.50;;;42.80;;
57337;SDS011;43173;50.980;18.204;2024-01-10T10:55:26;139.40;;;51.50;;
57337;SDS011;43173;50.980;18.204;2024-01-10T10:57:52;174.10;;;60.40;;
57337;SDS011;43173;50.980;18.204;2024-01-10T11:00:18;137.00;;;51.00;;
57337;SDS011;43173;50.980;18.204;2024-01-10T11:02:45;123.20;;;44.00;;
57337;SDS011;43173;50.980;18.204;2024-01-10T11:05:11;129.20;;;48.90;;
57337;SDS011;43173;50.980;18.204;2024-01-10T11:07:38;133.20;;;49.40;;
57337;SDS011;43173;50.980;18.204;2024-01-10T11:24:42;129.80;;;44.40;;
57337;SDS011;43173;50.980;18.204;2024-01-10T11:29:41;126.10;;;45.80;;
57337;SDS011;43173;50.980;18.204;2024-01-10T11:32:16;145.10;;;51.40;;
57337;SDS011;43173;50.980;18.204;2024-01-10T11:37:28;183.30;;;59.60;;
57337;SDS011;43173;50.980;18.204;2024-01-10T11:40:07;173.60;;;58.80;;
57337;SDS011;43173;50.980;18.204;2024-01-10T11:42:41;141.50;;;51.00;;
57337;SDS011;43173;50.980;18.204;2024-01-10T11:45:56;110.30;;;41.50;;
57337;SDS011;43173;50.980;18.204;2024-01-10T11:47:57;128.10;;;43.90;;
57337;SDS011;43173;50.980;18.204;2024-01-10T11:50:23;110.40;;;42.00;;
57337;SDS011;43173;50.980;18.204;2024-01-10T11:57:08;122.60;;;45.20;;
57337;SDS011;43173;50.980;18.204;2024-01-10T11:59:35;138.60;;;51.00;;
57337;SDS011;43173;50.980;18.204;2024-01-10T12:02:01;138.60;;;55.40;;
57337;SDS011;43173;50.980;18.204;2024-01-10T12:04:29;153.70;;;57.00;;
57337;SDS011;43173;50.980;18.204;2024-01-10T12:06:57;126.30;;;50.60;;
57337;SDS011;43173;50.980;18.204;2024-01-10T12:21:06;177.50;;;72.20;;
57337;SDS011;43173;50.980;18.204;2024-01-10T12:23:34;141.10;;;57.60;;
57337;SDS011;43173;50.980;18.204;2024-01-10T12:26:08;118.30;;;50.90;;
57337;SDS011;43173;50.980;18.204;2024-01-10T12:28:37;113.10;;;49.80;;
57337;SDS011;43173;50.980;18.204;2024-01-10T12:31:06;111.20;;;49.80;;
57337;SDS011;43173;50.980;18.204;2024-01-10T12:33:37;103.50;;;44.20;;
57337;SDS011;43173;50.980;18.204;2024-01-10T12:36:06;113.30;;;47.50;;
57337;SDS011;43173;50.980;18.204;2024-01-10T12:38:32;119.10;;;50.00;;
57337;SDS011;43173;50.980;18.204;2024-01-10T12:40:58;107.50;;;47.70;;
57337;SDS011;43173;50.980;18.204;2024-01-10T12:43:24;127.30;;;52.60;;
57337;SDS011;43173;50.980;18.204;2024-01-10T12:48:40;119.40;;;49.90;;
57337;SDS011;43173;50.980;18.204;2024-01-10T12:51:10;131.00;;;52.70;;
57337;SDS011;43173;50.980;18.204;2024-01-10T12:53:41;138.10;;;54.80;;
57337;SDS011;43173;50.980;18.204;2024-01-10T12:56:07;171.00;;;66.00;;
57337;SDS011;43173;50.980;18.204;2024-01-10T12:58:34;176.20;;;64.10;;
57337;SDS011;43173;50.980;18.204;2024-01-10T13:01:04;164.70;;;64.30;;
57337;SDS011;43173;50.980;18.204;2024-01-10T13:03:30;148.70;;;59.90;;
57337;SDS011;43173;50.980;18.204;2024-01-10T13:05:55;133.80;;;57.90;;
57337;SDS011;43173;50.980;18.204;2024-01-10T13:08:21;126.40;;;53.00;;
57337;SDS011;43173;50.980;18.204;2024-01-10T13:10:47;136.50;;;55.60;;
57337;SDS011;43173;50.980;18.204;2024-01-10T13:13:13;124.80;;;55.10;;
57337;SDS011;43173;50.980;18.204;2024-01-10T13:15:39;130.00;;;56.20;;
57337;SDS011;43173;50.980;18.204;2024-01-10T13:18:05;118.90;;;53.10;;
57337;SDS011;43173;50.980;18.204;2024-01-10T13:20:32;129.90;;;56.20;;
57337;SDS011;43173;50.980;18.204;2024-01-10T13:22:57;135.10;;;58.20;;
57337;SDS011;43173;50.980;18.204;2024-01-10T13:25:23;142.60;;;57.40;;
57337;SDS011;43173;50.980;18.204;2024-01-10T13:27:52;135.10;;;58.30;;
57337;SDS011;43173;50.980;18.204;2024-01-10T13:30:18;142.70;;;58.10;;
57337;SDS011;43173;50.980;18.204;2024-01-10T13:32:47;141.50;;;57.40;;
57337;SDS011;43173;50.980;18.204;2024-01-10T13:35:13;124.60;;;54.70;;
57337;SDS011;43173;50.980;18.204;2024-01-10T13:37:40;125.10;;;55.20;;
57337;SDS011;43173;50.980;18.204;2024-01-10T13:42:49;135.20;;;60.20;;
57337;SDS011;43173;50.980;18.204;2024-01-10T13:45:15;132.40;;;59.50;;
57337;SDS011;43173;50.980;18.204;2024-01-10T13:47:42;140.70;;;62.20;;
57337;SDS011;43173;50.980;18.204;2024-01-10T13:50:08;143.80;;;61.70;;
57337;SDS011;43173;50.980;18.204;2024-01-10T13:52:35;154.10;;;64.90;;
57337;SDS011;43173;50.980;18.204;2024-01-10T13:55:01;149.10;;;64.30;;
57337;SDS011;43173;50.980;18.204;2024-01-10T13:57:30;149.10;;;63.10;;
57337;SDS011;43173;50.980;18.204;2024-01-10T13:59:58;158.70;;;65.70;;
57337;SDS011;43173;50.980;18.204;2024-01-10T14:02:24;156.50;;;66.30;;
57337;SDS011;43173;50.980;18.204;2024-01-10T14:04:50;168.50;;;67.10;;
57337;SDS011;43173;50.980;18.204;2024-01-10T14:07:17;140.70;;;61.30;;
57337;SDS011;43173;50.980;18.204;2024-01-10T14:09:43;146.40;;;63.70;;
57337;SDS011;43173;50.980;18.204;2024-01-10T14:12:11;138.80;;;58.30;;
57337;SDS011;43173;50.980;18.204;2024-01-10T14:14:37;137.10;;;55.40;;
57337;SDS011;43173;50.980;18.204;2024-01-10T14:17:03;141.20;;;58.70;;
57337;SDS011;43173;50.980;18.204;2024-01-10T14:19:32;143.90;;;60.60;;
57337;SDS011;43173;50.980;18.204;2024-01-10T14:21:58;150.80;;;63.10;;
57337;SDS011;43173;50.980;18.204;2024-01-10T14:24:24;148.00;;;59.20;;
57337;SDS011;43173;50.980;18.204;2024-01-10T14:26:50;151.50;;;60.00;;
57337;SDS011;43173;50.980;18.204;2024-01-10T14:29:15;145.10;;;60.90;;
57337;SDS011;43173;50.980;18.204;2024-01-10T14:31:41;180.30;;;62.00;;
57337;SDS011;43173;50.980;18.204;2024-01-10T14:34:07;181.20;;;64.30;;
57337;SDS011;43173;50.980;18.204;2024-01-10T14:36:34;186.50;;;63.30;;
57337;SDS011;43173;50.980;18.204;2024-01-10T14:39:00;177.90;;;60.60;;
57337;SDS011;43173;50.980;18.204;2024-01-10T14:41:25;181.50;;;62.70;;
57337;SDS011;43173;50.980;18.204;2024-01-10T14:43:51;202.00;;;67.80;;
57337;SDS011;43173;50.980;18.204;2024-01-10T14:46:16;178.10;;;63.20;;
57337;SDS011;43173;50.980;18.204;2024-01-10T14:48:42;188.90;;;68.90;;
57337;SDS011;43173;50.980;18.204;2024-01-10T14:51:07;201.20;;;71.90;;
57337;SDS011;43173;50.980;18.204;2024-01-10T14:53:33;187.50;;;66.90;;
57337;SDS011;43173;50.980;18.204;2024-01-10T14:56:00;175.00;;;62.70;;
57337;SDS011;43173;50.980;18.204;2024-01-10T14:58:26;172.20;;;60.40;;
57337;SDS011;43173;50.980;18.204;2024-01-10T15:00:52;173.10;;;60.80;;